createdAt,value
2023-03-26T00:00:45.844Z,10.6692
2023-03-26T00:01:52.880Z,10.6528
2023-03-26T00:02:59.821Z,10.6351
2023-03-26T00:04:06.893Z,10.6177
2023-03-26T00:05:13.786Z,10.6076
2023-03-26T00:06:20.795Z,10.5996
2023-03-26T00:07:27.750Z,10.5819
2023-03-26T00:08:34.769Z,10.5748
2023-03-26T00:09:41.707Z,10.5550
2023-03-26T00:10:48.706Z,10.5428
2023-03-26T00:11:55.703Z,10.5330
2023-03-26T00:13:02.716Z,10.5182
2023-03-26T00:14:09.652Z,10.5054
2023-03-26T00:15:16.642Z,10.4937
2023-03-26T00:16:23.639Z,10.4871
2023-03-26T00:17:30.672Z,10.4787
2023-03-26T00:18:37.593Z,10.4693
2023-03-26T00:19:44.597Z,10.4585
2023-03-26T00:20:51.557Z,10.4489
2023-03-26T00:21:58.550Z,10.4436
2023-03-26T00:23:05.525Z,10.4312
2023-03-26T00:24:12.531Z,10.4216
2023-03-26T00:25:19.488Z,10.4104
2023-03-26T00:26:26.505Z,10.4014
2023-03-26T00:27:33.455Z,10.3833
2023-03-26T00:28:40.725Z,10.3802
2023-03-26T00:29:47.418Z,10.3762
2023-03-26T00:30:54.488Z,10.3654
2023-03-26T00:32:01.403Z,10.3406
2023-03-26T00:33:08.443Z,10.3295
2023-03-26T00:34:15.384Z,10.3068
2023-03-26T00:35:22.448Z,10.2992
2023-03-26T00:36:29.415Z,10.2895
2023-03-26T00:37:36.351Z,10.2809
2023-03-26T00:38:43.325Z,10.2776
2023-03-26T00:39:50.328Z,10.2776
2023-03-26T00:40:57.293Z,10.2740
2023-03-26T00:42:04.287Z,10.2582
2023-03-26T00:43:11.267Z,10.2486
2023-03-26T00:44:18.269Z,10.2395
2023-03-26T00:45:25.231Z,10.2320
2023-03-26T00:46:32.342Z,10.2263
2023-03-26T00:47:39.196Z,10.2204
2023-03-26T00:48:46.311Z,10.2374
2023-03-26T00:49:53.176Z,10.2628
2023-03-26T00:51:00.165Z,10.2868
2023-03-26T00:52:07.130Z,10.3038
2023-03-26T00:53:14.150Z,10.3204
2023-03-26T00:54:21.113Z,10.3322
2023-03-26T00:55:28.110Z,10.3173
2023-03-26T00:56:35.094Z,10.3125
2023-03-26T00:57:42.081Z,10.3057
2023-03-26T00:58:49.058Z,10.3093
2023-03-26T00:59:56.129Z,10.3064
2023-03-26T01:01:03.129Z,10.3108
2023-03-26T01:02:10.084Z,10.3093
2023-03-26T01:03:26.670Z,10.3122
2023-03-26T01:04:28.967Z,10.3004
2023-03-26T01:05:35.814Z,10.2902
2023-03-26T01:06:42.846Z,10.2820
2023-03-26T01:07:49.764Z,10.2794
2023-03-26T01:08:56.779Z,10.2856
2023-03-26T01:10:03.748Z,10.2843
2023-03-26T01:11:10.761Z,10.2896
2023-03-26T01:12:17.730Z,10.2877
2023-03-26T01:13:24.701Z,10.3043
2023-03-26T01:14:31.672Z,10.3173
2023-03-26T01:15:38.707Z,10.3362
2023-03-26T01:16:45.646Z,10.3608
2023-03-26T01:17:52.669Z,10.3827
2023-03-26T01:18:59.608Z,10.3988
2023-03-26T01:20:06.604Z,10.4077
2023-03-26T01:21:13.577Z,10.4247
2023-03-26T01:22:20.617Z,10.4216
2023-03-26T01:23:27.541Z,10.3911
2023-03-26T01:24:34.539Z,10.3749
2023-03-26T01:25:41.513Z,10.3555
2023-03-26T01:26:48.518Z,10.3343
2023-03-26T01:27:55.480Z,10.3059
2023-03-26T01:29:02.477Z,10.2752
2023-03-26T01:30:09.438Z,10.2416
2023-03-26T01:31:16.433Z,10.2128
2023-03-26T01:32:23.456Z,10.1825
2023-03-26T01:33:30.514Z,10.1649
2023-03-26T01:34:37.439Z,10.1413
2023-03-26T01:35:44.439Z,10.1208
2023-03-26T01:36:51.338Z,10.0972
2023-03-26T01:37:58.364Z,10.0856
2023-03-26T01:39:05.317Z,10.0705
2023-03-26T01:40:12.317Z,10.0653
2023-03-26T01:41:19.272Z,10.0627
2023-03-26T01:42:26.301Z,10.0602
2023-03-26T01:43:33.257Z,10.0608
2023-03-26T01:44:40.240Z,10.0688
2023-03-26T01:45:47.197Z,10.0653
2023-03-26T01:46:54.227Z,10.0667
2023-03-26T01:48:01.246Z,10.0640
2023-03-26T01:49:08.195Z,10.0653
2023-03-26T01:50:15.161Z,10.0510
2023-03-26T01:51:22.149Z,10.0489
2023-03-26T01:52:29.114Z,10.0467
2023-03-26T01:53:36.127Z,10.0365
2023-03-26T01:54:43.093Z,10.0352
2023-03-26T01:55:50.102Z,10.0291
2023-03-26T01:56:57.112Z,10.0341
2023-03-26T01:58:04.062Z,10.0461
2023-03-26T01:59:11.043Z,10.0495
2023-03-26T02:00:18.083Z,10.0615
2023-03-26T02:01:25.047Z,10.0724
2023-03-26T02:02:32.137Z,10.0871
2023-03-26T02:03:39.028Z,10.0924
2023-03-26T02:04:45.981Z,10.0938
2023-03-26T02:05:53.229Z,10.0875
2023-03-26T02:06:59.958Z,10.0768
2023-03-26T02:08:06.903Z,10.0776
2023-03-26T02:09:13.912Z,10.0743
2023-03-26T02:10:20.874Z,10.0858
2023-03-26T02:11:35.560Z,10.1123
2023-03-26T02:12:39.640Z,10.1306
2023-03-26T02:13:46.629Z,10.1582
2023-03-26T02:14:53.583Z,10.1695
2023-03-26T02:16:00.649Z,10.1804
2023-03-26T02:17:07.572Z,10.1712
2023-03-26T02:18:14.559Z,10.1699
2023-03-26T02:19:21.838Z,10.1682
2023-03-26T02:20:28.529Z,10.1872
2023-03-26T02:21:35.501Z,10.2032
2023-03-26T02:22:42.499Z,10.2019
2023-03-26T02:23:49.463Z,10.2099
2023-03-26T02:24:56.459Z,10.2078
2023-03-26T02:26:03.418Z,10.2294
2023-03-26T02:27:10.460Z,10.2418
2023-03-26T02:28:17.385Z,10.2547
2023-03-26T02:29:24.382Z,10.2633
2023-03-26T02:30:31.389Z,10.2540
2023-03-26T02:31:38.472Z,10.2437
2023-03-26T02:32:45.354Z,10.2269
2023-03-26T02:33:52.329Z,10.2095
2023-03-26T02:34:59.282Z,10.1996
2023-03-26T02:36:06.353Z,10.2010
2023-03-26T02:37:13.256Z,10.1886
2023-03-26T02:38:20.271Z,10.1872
2023-03-26T02:39:27.241Z,10.1826
2023-03-26T02:40:34.230Z,10.2004
2023-03-26T02:41:41.229Z,10.2155
2023-03-26T02:42:48.195Z,10.2174
2023-03-26T02:43:55.167Z,10.2185
2023-03-26T02:45:02.168Z,10.2217
2023-03-26T02:46:09.172Z,10.2256
2023-03-26T02:47:16.131Z,10.2235
2023-03-26T02:48:23.095Z,10.2317
2023-03-26T02:49:30.121Z,10.2315
2023-03-26T02:50:37.105Z,10.2338
2023-03-26T02:51:44.088Z,10.2401
2023-03-26T02:52:51.041Z,10.2509
2023-03-26T02:53:58.039Z,10.2464
2023-03-26T02:55:05.009Z,10.2490
2023-03-26T02:56:12.033Z,10.2526
2023-03-26T02:57:18.976Z,10.2549
2023-03-26T02:58:25.968Z,10.2597
2023-03-26T02:59:32.932Z,10.2607
2023-03-26T03:00:39.950Z,10.2589
2023-03-26T03:01:46.911Z,10.2673
2023-03-26T03:02:54.010Z,10.2660
2023-03-26T03:04:00.869Z,10.2761
2023-03-26T03:05:07.875Z,10.2811
2023-03-26T03:06:14.853Z,10.2868
2023-03-26T03:07:21.841Z,10.2896
2023-03-26T03:08:28.814Z,10.2950
2023-03-26T03:09:35.807Z,10.3089
2023-03-26T03:10:42.769Z,10.3263
2023-03-26T03:11:49.776Z,10.3349
2023-03-26T03:12:56.733Z,10.3387
2023-03-26T03:14:03.803Z,10.3381
2023-03-26T03:15:10.720Z,10.3398
2023-03-26T03:16:17.753Z,10.3406
2023-03-26T03:17:24.719Z,10.3421
2023-03-26T03:18:31.675Z,10.3385
2023-03-26T03:19:38.653Z,10.3362
2023-03-26T03:20:45.668Z,10.3417
2023-03-26T03:21:52.618Z,10.3415
2023-03-26T03:22:59.624Z,10.3436
2023-03-26T03:24:06.592Z,10.3444
2023-03-26T03:25:13.582Z,10.3335
2023-03-26T03:26:20.565Z,10.3364
2023-03-26T03:27:27.573Z,10.3333
2023-03-26T03:28:34.531Z,10.3329
2023-03-26T03:29:41.529Z,10.3362
2023-03-26T03:30:48.517Z,10.3362
2023-03-26T03:31:55.518Z,10.3375
2023-03-26T03:33:02.553Z,10.3316
2023-03-26T03:34:09.475Z,10.3261
2023-03-26T03:35:16.449Z,10.3162
2023-03-26T03:36:23.437Z,10.3102
2023-03-26T03:37:30.417Z,10.3082
2023-03-26T03:38:37.446Z,10.3074
2023-03-26T03:39:44.410Z,10.3200
2023-03-26T03:40:51.364Z,10.3186
2023-03-26T03:41:58.365Z,10.3160
2023-03-26T03:43:05.361Z,10.3013
2023-03-26T03:44:12.344Z,10.2946
2023-03-26T03:45:19.315Z,10.2826
2023-03-26T03:46:26.351Z,10.2666
2023-03-26T03:47:33.336Z,10.2534
2023-03-26T03:48:40.281Z,10.2273
2023-03-26T03:49:47.243Z,10.2059
2023-03-26T03:50:54.250Z,10.1922
2023-03-26T03:52:01.223Z,10.1779
2023-03-26T03:53:08.213Z,10.1699
2023-03-26T03:54:15.179Z,10.1590
2023-03-26T03:55:22.200Z,10.1596
2023-03-26T03:56:29.194Z,10.1594
2023-03-26T03:57:36.150Z,10.1601
2023-03-26T03:58:43.138Z,10.1680
2023-03-26T03:59:50.115Z,10.1792
2023-03-26T04:00:57.090Z,10.1758
2023-03-26T04:02:04.101Z,10.1941
2023-03-26T04:03:11.151Z,10.1889
2023-03-26T04:04:18.093Z,10.1908
2023-03-26T04:05:25.011Z,10.1945
2023-03-26T04:06:32.024Z,10.1943
2023-03-26T04:07:39.007Z,10.1952
2023-03-26T04:08:45.994Z,10.1952
2023-03-26T04:09:52.957Z,10.2000
2023-03-26T04:10:59.947Z,10.1994
2023-03-26T04:12:06.913Z,10.1983
2023-03-26T04:13:13.933Z,10.1983
2023-03-26T04:14:20.895Z,10.2046
2023-03-26T04:15:28.110Z,10.2000
2023-03-26T04:16:34.909Z,10.1907
2023-03-26T04:17:41.876Z,10.1893
2023-03-26T04:18:48.812Z,10.1796
2023-03-26T04:19:55.822Z,10.1693
2023-03-26T04:21:02.780Z,10.1573
2023-03-26T04:22:09.794Z,10.1525
2023-03-26T04:23:16.742Z,10.1506
2023-03-26T04:24:23.769Z,10.1491
2023-03-26T04:25:30.718Z,10.1550
2023-03-26T04:26:37.730Z,10.1577
2023-03-26T04:27:44.681Z,10.1586
2023-03-26T04:28:51.683Z,10.1645
2023-03-26T04:29:58.657Z,10.1659
2023-03-26T04:31:05.691Z,10.1712
2023-03-26T04:32:12.607Z,10.1805
2023-03-26T04:33:19.615Z,10.1826
2023-03-26T04:34:26.598Z,10.1807
2023-03-26T04:35:33.607Z,10.1872
2023-03-26T04:36:40.576Z,10.1863
2023-03-26T04:37:47.570Z,10.1889
2023-03-26T04:38:54.529Z,10.1964
2023-03-26T04:40:01.513Z,10.2057
2023-03-26T04:41:08.478Z,10.2052
2023-03-26T04:42:15.522Z,10.2063
2023-03-26T04:43:22.436Z,10.2065
2023-03-26T04:44:29.444Z,10.1918
2023-03-26T04:45:36.402Z,10.1678
2023-03-26T04:46:43.523Z,10.1590
2023-03-26T04:47:50.482Z,10.1394
2023-03-26T04:48:57.410Z,10.1226
2023-03-26T04:50:04.350Z,10.1277
2023-03-26T04:51:11.343Z,10.1142
2023-03-26T04:52:18.300Z,10.1117
2023-03-26T04:53:25.295Z,10.1067
2023-03-26T04:54:32.289Z,10.1123
2023-03-26T04:55:39.290Z,10.1071
2023-03-26T04:56:46.282Z,10.1086
2023-03-26T04:57:53.252Z,10.1033
2023-03-26T04:59:00.187Z,10.1069
2023-03-26T05:00:07.190Z,10.1092
2023-03-26T05:01:14.206Z,10.1094
2023-03-26T05:02:21.164Z,10.1104
2023-03-26T05:03:28.118Z,10.1105
2023-03-26T05:04:35.239Z,10.1136
2023-03-26T05:05:42.146Z,10.1142
2023-03-26T05:06:49.162Z,10.1155
2023-03-26T05:07:56.135Z,10.1220
2023-03-26T05:09:03.150Z,10.1266
2023-03-26T05:10:10.093Z,10.1275
2023-03-26T05:11:17.096Z,10.1313
2023-03-26T05:12:24.062Z,10.1308
2023-03-26T05:13:31.080Z,10.1428
2023-03-26T05:14:38.046Z,10.1453
2023-03-26T05:15:45.048Z,10.1498
2023-03-26T05:16:52.014Z,10.1569
2023-03-26T05:17:59.124Z,10.1609
2023-03-26T05:19:05.960Z,10.1651
2023-03-26T05:20:12.981Z,10.1666
2023-03-26T05:21:19.945Z,10.1733
2023-03-26T05:22:26.942Z,10.1756
2023-03-26T05:23:33.897Z,10.1697
2023-03-26T05:24:40.902Z,10.1790
2023-03-26T05:25:47.883Z,10.1899
2023-03-26T05:26:54.896Z,10.1975
2023-03-26T05:28:01.828Z,10.1992
2023-03-26T05:29:08.839Z,10.1998
2023-03-26T05:30:15.798Z,10.2040
2023-03-26T05:31:22.810Z,10.2090
2023-03-26T05:32:29.829Z,10.2095
2023-03-26T05:33:36.850Z,10.2107
2023-03-26T05:34:43.724Z,10.2132
2023-03-26T05:35:50.731Z,10.2195
2023-03-26T05:36:57.705Z,10.2181
2023-03-26T05:38:04.692Z,10.2128
2023-03-26T05:39:11.662Z,10.2206
2023-03-26T05:40:18.657Z,10.2254
2023-03-26T05:41:25.638Z,10.2242
2023-03-26T05:42:32.644Z,10.2269
2023-03-26T05:43:39.686Z,10.2301
2023-03-26T05:44:46.597Z,10.2416
2023-03-26T05:45:53.604Z,10.2441
2023-03-26T05:47:00.572Z,10.2469
2023-03-26T05:48:07.577Z,10.2544
2023-03-26T05:49:14.550Z,10.2547
2023-03-26T05:50:21.506Z,10.2542
2023-03-26T05:51:28.500Z,10.2547
2023-03-26T05:52:35.484Z,10.2521
2023-03-26T05:53:42.466Z,10.2505
2023-03-26T05:54:49.454Z,10.2420
2023-03-26T05:55:56.445Z,10.2423
2023-03-26T05:57:03.418Z,10.2368
2023-03-26T05:58:10.450Z,10.2282
2023-03-26T05:59:17.373Z,10.2189
2023-03-26T06:00:24.385Z,10.2052
2023-03-26T06:01:31.343Z,10.2023
2023-03-26T06:02:38.341Z,10.1945
2023-03-26T06:03:45.369Z,10.1826
2023-03-26T06:04:52.323Z,10.1849
2023-03-26T06:05:59.275Z,10.1905
2023-03-26T06:07:06.282Z,10.1882
2023-03-26T06:08:13.289Z,10.1838
2023-03-26T06:09:20.217Z,10.1847
2023-03-26T06:10:27.230Z,10.1758
2023-03-26T06:11:34.204Z,10.1769
2023-03-26T06:12:41.171Z,10.1771
2023-03-26T06:13:48.144Z,10.1727
2023-03-26T06:14:55.111Z,10.1640
2023-03-26T06:16:02.222Z,10.1651
2023-03-26T06:17:09.091Z,10.1565
2023-03-26T06:18:16.105Z,10.1504
2023-03-26T06:19:23.058Z,10.1422
2023-03-26T06:20:30.058Z,10.1348
2023-03-26T06:21:37.026Z,10.1247
2023-03-26T06:22:44.039Z,10.1208
2023-03-26T06:23:51.004Z,10.1188
2023-03-26T06:24:58.012Z,10.1189
2023-03-26T06:26:04.985Z,10.1186
2023-03-26T06:27:11.978Z,10.1170
2023-03-26T06:28:18.930Z,10.1218
2023-03-26T06:29:25.954Z,10.1119
2023-03-26T06:30:32.924Z,10.1159
2023-03-26T06:31:39.918Z,10.1088
2023-03-26T06:32:46.994Z,10.0873
2023-03-26T06:33:53.877Z,10.0537
2023-03-26T06:35:00.844Z,10.0055
2023-03-26T06:36:07.883Z,9.9530
2023-03-26T06:37:14.819Z,9.9122
2023-03-26T06:38:21.815Z,9.8904
2023-03-26T06:39:28.767Z,9.8880
2023-03-26T06:40:35.767Z,9.8986
2023-03-26T06:41:42.750Z,9.8988
2023-03-26T06:43:09.586Z,9.8841
2023-03-26T06:44:01.500Z,9.8529
2023-03-26T06:45:08.491Z,9.8229
2023-03-26T06:46:15.483Z,9.8054
2023-03-26T06:47:22.485Z,9.7819
2023-03-26T06:48:29.419Z,9.7810
2023-03-26T06:49:36.424Z,9.7792
2023-03-26T06:50:43.409Z,9.7377
2023-03-26T06:51:50.398Z,9.7073
2023-03-26T06:52:57.355Z,9.6770
2023-03-26T06:54:04.358Z,9.6686
2023-03-26T06:55:11.350Z,9.6602
2023-03-26T06:56:18.343Z,9.6757
2023-03-26T06:57:25.296Z,9.6650
2023-03-26T06:58:32.291Z,9.6484
2023-03-26T06:59:39.247Z,9.6471
2023-03-26T07:00:46.321Z,9.6553
2023-03-26T07:01:53.241Z,9.6709
2023-03-26T07:03:00.251Z,9.6738
2023-03-26T07:04:07.267Z,9.6675
2023-03-26T07:05:14.198Z,9.6713
2023-03-26T07:06:21.177Z,9.6671
2023-03-26T07:07:28.177Z,9.6696
2023-03-26T07:08:35.130Z,9.6738
2023-03-26T07:09:42.119Z,9.6728
2023-03-26T07:10:49.080Z,9.6906
2023-03-26T07:11:56.100Z,9.7140
2023-03-26T07:13:03.072Z,9.7159
2023-03-26T07:14:10.077Z,9.7146
2023-03-26T07:15:17.021Z,9.7060
2023-03-26T07:16:24.062Z,9.7083
2023-03-26T07:17:31.069Z,9.7369
2023-03-26T07:18:38.012Z,9.7470
2023-03-26T07:19:44.975Z,9.7310
2023-03-26T07:20:52.082Z,9.6976
2023-03-26T07:21:58.928Z,9.6810
2023-03-26T07:23:05.932Z,9.6900
2023-03-26T07:24:12.902Z,9.7235
2023-03-26T07:25:19.929Z,9.7684
2023-03-26T07:26:26.887Z,9.7846
2023-03-26T07:27:33.860Z,9.7930
2023-03-26T07:28:40.849Z,9.8109
2023-03-26T07:29:47.854Z,9.8470
2023-03-26T07:30:54.948Z,9.8824
2023-03-26T07:32:01.875Z,9.9059
2023-03-26T07:33:08.756Z,9.9183
2023-03-26T07:34:15.756Z,9.9292
2023-03-26T07:35:22.737Z,9.9429
2023-03-26T07:36:29.758Z,9.9576
2023-03-26T07:37:36.729Z,9.9746
2023-03-26T07:38:43.697Z,9.9868
2023-03-26T07:39:50.654Z,9.9978
2023-03-26T07:40:57.664Z,9.9881
2023-03-26T07:42:04.632Z,9.9553
2023-03-26T07:43:11.635Z,9.9395
2023-03-26T07:44:18.590Z,9.9572
2023-03-26T07:45:25.586Z,9.9856
2023-03-26T07:46:32.544Z,10.0222
2023-03-26T07:47:39.582Z,10.0571
2023-03-26T07:48:46.529Z,10.0791
2023-03-26T07:49:53.532Z,10.0913
2023-03-26T07:51:00.480Z,10.1088
2023-03-26T07:52:07.482Z,10.1147
2023-03-26T07:53:14.452Z,10.1228
2023-03-26T07:54:21.454Z,10.1451
2023-03-26T07:55:28.427Z,10.1651
2023-03-26T07:56:35.555Z,10.1901
2023-03-26T07:57:42.437Z,10.2237
2023-03-26T07:58:49.386Z,10.2483
2023-03-26T07:59:56.327Z,10.2626
2023-03-26T08:01:03.341Z,10.2851
2023-03-26T08:02:10.305Z,10.2923
2023-03-26T08:03:17.569Z,10.2876
2023-03-26T08:04:25.940Z,10.2448
2023-03-26T08:05:36.051Z,10.2214
2023-03-26T08:06:43.020Z,10.2324
2023-03-26T08:07:50.027Z,10.2505
2023-03-26T08:08:56.978Z,10.2683
2023-03-26T08:10:04.023Z,10.2788
2023-03-26T08:11:10.953Z,10.2868
2023-03-26T08:12:17.943Z,10.3064
2023-03-26T08:13:24.908Z,10.3261
2023-03-26T08:14:31.916Z,10.3501
2023-03-26T08:15:38.945Z,10.3699
2023-03-26T08:16:45.919Z,10.3682
2023-03-26T08:17:52.929Z,10.3492
2023-03-26T08:18:59.840Z,10.3406
2023-03-26T08:20:06.834Z,10.3556
2023-03-26T08:21:13.835Z,10.3699
2023-03-26T08:22:20.794Z,10.3677
2023-03-26T08:23:27.808Z,10.3705
2023-03-26T08:24:34.750Z,10.3680
2023-03-26T08:25:41.703Z,10.3738
2023-03-26T08:26:48.730Z,10.3810
2023-03-26T08:27:55.709Z,10.3942
2023-03-26T08:29:02.673Z,10.4083
2023-03-26T08:30:09.661Z,10.4188
2023-03-26T08:31:16.677Z,10.4243
2023-03-26T08:32:23.625Z,10.4306
2023-03-26T08:33:30.646Z,10.4466
2023-03-26T08:34:37.575Z,10.4380
2023-03-26T08:35:44.593Z,10.4428
2023-03-26T08:36:51.536Z,10.4443
2023-03-26T08:37:58.550Z,10.4512
2023-03-26T08:39:05.517Z,10.4548
2023-03-26T08:40:12.504Z,10.4602
2023-03-26T08:41:19.474Z,10.4974
2023-03-26T08:42:26.479Z,10.5262
2023-03-26T08:43:33.475Z,10.5347
2023-03-26T08:44:40.466Z,10.5183
2023-03-26T08:45:47.413Z,10.5040
2023-03-26T08:46:54.482Z,10.4970
2023-03-26T08:48:01.419Z,10.4558
2023-03-26T08:49:08.396Z,10.3646
2023-03-26T08:50:15.359Z,10.3186
2023-03-26T08:51:22.358Z,10.2668
2023-03-26T08:52:29.329Z,10.2483
2023-03-26T08:53:36.319Z,10.2576
2023-03-26T08:54:43.320Z,10.2528
2023-03-26T08:55:50.299Z,10.2261
2023-03-26T08:56:57.296Z,10.2320
2023-03-26T08:58:04.287Z,10.2094
2023-03-26T08:59:11.231Z,10.2174
2023-03-26T09:00:18.234Z,10.2128
2023-03-26T09:01:25.232Z,10.1794
2023-03-26T09:02:32.249Z,10.1500
2023-03-26T09:03:39.208Z,10.1487
2023-03-26T09:04:46.169Z,10.1851
2023-03-26T09:05:53.117Z,10.2521
2023-03-26T09:07:00.132Z,10.3234
2023-03-26T09:08:07.165Z,10.4018
2023-03-26T09:09:19.250Z,10.4497
2023-03-26T09:10:25.909Z,10.5048
2023-03-26T09:11:32.908Z,10.5502
2023-03-26T09:12:39.875Z,10.5887
2023-03-26T09:13:46.885Z,10.6297
2023-03-26T09:14:53.846Z,10.6730
2023-03-26T09:16:00.851Z,10.6795
2023-03-26T09:17:07.834Z,10.6757
2023-03-26T09:18:14.816Z,10.6595
2023-03-26T09:19:21.801Z,10.6679
2023-03-26T09:20:28.816Z,10.6890
2023-03-26T09:21:35.720Z,10.7087
2023-03-26T09:22:42.725Z,10.7459
2023-03-26T09:23:49.698Z,10.7634
2023-03-26T09:24:56.711Z,10.7930
2023-03-26T09:26:03.659Z,10.8187
2023-03-26T09:27:10.643Z,10.8447
2023-03-26T09:28:17.609Z,10.8596
2023-03-26T09:29:24.604Z,10.8743
2023-03-26T09:30:31.591Z,10.8861
2023-03-26T09:31:38.623Z,10.9149
2023-03-26T09:32:45.600Z,10.9238
2023-03-26T09:33:52.526Z,10.8931
2023-03-26T09:34:59.484Z,10.8386
2023-03-26T09:36:06.508Z,10.7953
2023-03-26T09:37:13.467Z,10.7993
2023-03-26T09:38:20.484Z,10.8210
2023-03-26T09:39:27.427Z,10.7924
2023-03-26T09:40:34.413Z,10.7655
2023-03-26T09:41:41.399Z,10.7747
2023-03-26T09:42:48.397Z,10.7978
2023-03-26T09:43:55.348Z,10.8308
2023-03-26T09:45:02.345Z,10.8706
2023-03-26T09:46:09.345Z,10.9084
2023-03-26T09:47:16.325Z,10.9425
2023-03-26T09:48:23.269Z,10.9858
2023-03-26T09:49:30.266Z,11.0270
2023-03-26T09:50:37.221Z,11.0377
2023-03-26T09:51:44.256Z,11.0322
2023-03-26T09:52:51.208Z,11.0390
2023-03-26T09:53:58.186Z,11.0488
2023-03-26T09:55:05.164Z,11.0837
2023-03-26T09:56:12.156Z,11.1281
2023-03-26T09:57:19.260Z,11.1464
2023-03-26T09:58:26.159Z,11.1455
2023-03-26T09:59:33.106Z,11.1640
2023-03-26T10:00:40.113Z,11.2017
2023-03-26T10:01:47.043Z,11.2372
2023-03-26T10:02:54.089Z,11.2885
2023-03-26T10:04:01.011Z,11.3381
2023-03-26T10:05:08.089Z,11.3845
2023-03-26T10:06:14.962Z,11.4224
2023-03-26T10:07:21.968Z,11.4760
2023-03-26T10:08:31.632Z,11.4787
2023-03-26T10:09:40.727Z,11.4891
2023-03-26T10:10:47.663Z,11.4938
2023-03-26T10:11:54.665Z,11.4943
2023-03-26T10:13:13.658Z,11.5109
2023-03-26T10:14:13.426Z,11.5255
2023-03-26T10:15:20.393Z,11.5466
2023-03-26T10:16:27.407Z,11.5706
2023-03-26T10:17:34.417Z,11.5907
2023-03-26T10:18:41.332Z,11.6023
2023-03-26T10:19:48.301Z,11.6130
2023-03-26T10:20:55.476Z,11.6202
2023-03-26T10:22:02.246Z,11.6372
2023-03-26T10:23:09.244Z,11.6406
2023-03-26T10:24:16.209Z,11.6595
2023-03-26T10:25:23.238Z,11.7051
2023-03-26T10:26:30.168Z,11.7503
2023-03-26T10:27:37.173Z,11.7923
2023-03-26T10:28:44.129Z,11.8253
2023-03-26T10:29:51.131Z,11.8457
2023-03-26T10:30:58.248Z,11.8823
2023-03-26T10:32:05.096Z,11.9006
2023-03-26T10:33:12.045Z,11.9267
2023-03-26T10:34:28.571Z,11.9656
2023-03-26T10:35:30.804Z,11.9916
2023-03-26T10:36:37.804Z,12.0227
2023-03-26T10:37:45.557Z,12.0477
2023-03-26T10:38:51.752Z,12.1012
2023-03-26T10:39:58.712Z,12.1621
2023-03-26T10:41:05.709Z,12.2220
2023-03-26T10:42:12.686Z,12.2847
2023-03-26T10:43:19.686Z,12.3246
2023-03-26T10:44:26.635Z,12.3723
2023-03-26T10:45:33.634Z,12.4306
2023-03-26T10:46:40.619Z,12.4541
2023-03-26T10:47:47.630Z,12.4862
2023-03-26T10:48:54.563Z,12.5146
2023-03-26T10:50:01.554Z,12.5384
2023-03-26T10:51:08.500Z,12.5512
2023-03-26T10:52:15.498Z,12.5394
2023-03-26T10:53:22.467Z,12.5403
2023-03-26T10:54:29.467Z,12.5668
2023-03-26T10:55:36.436Z,12.6012
2023-03-26T10:56:43.445Z,12.6302
2023-03-26T10:57:50.380Z,12.6654
2023-03-26T10:58:57.395Z,12.6822
2023-03-26T11:00:04.327Z,12.6900
2023-03-26T11:01:11.352Z,12.6990
2023-03-26T11:02:18.280Z,12.6992
2023-03-26T11:03:25.279Z,12.7023
2023-03-26T11:04:32.254Z,12.6860
2023-03-26T11:05:39.310Z,12.6981
2023-03-26T11:06:46.202Z,12.6920
2023-03-26T11:07:53.194Z,12.6752
2023-03-26T11:09:00.160Z,12.6662
2023-03-26T11:10:07.184Z,12.6662
2023-03-26T11:11:14.121Z,12.6603
2023-03-26T11:12:27.280Z,12.6666
2023-03-26T11:13:32.853Z,12.6627
2023-03-26T11:14:39.854Z,12.6740
2023-03-26T11:15:46.859Z,12.7015
2023-03-26T11:16:53.823Z,12.7215
2023-03-26T11:18:00.799Z,12.7492
2023-03-26T11:19:07.774Z,12.7806
2023-03-26T11:20:14.745Z,12.8169
2023-03-26T11:21:21.743Z,12.8377
2023-03-26T11:22:28.882Z,12.8527
2023-03-26T11:23:35.691Z,12.8741
2023-03-26T11:24:42.656Z,12.9020
2023-03-26T11:25:49.655Z,12.9433
2023-03-26T11:26:56.626Z,12.9880
2023-03-26T11:28:03.613Z,13.0259
2023-03-26T11:29:32.891Z,13.0715
2023-03-26T11:30:22.350Z,13.1316
2023-03-26T11:31:29.351Z,13.1873
2023-03-26T11:32:36.345Z,13.2363
2023-03-26T11:33:45.597Z,13.2813
2023-03-26T11:34:55.084Z,13.3264
2023-03-26T11:36:02.031Z,13.3738
2023-03-26T11:37:09.011Z,13.4137
2023-03-26T11:38:16.005Z,13.4455
2023-03-26T11:39:22.974Z,13.4787
2023-03-26T11:40:29.930Z,13.4976
2023-03-26T11:41:36.925Z,13.5062
2023-03-26T11:42:43.890Z,13.5127
2023-03-26T11:43:50.903Z,13.5119
2023-03-26T11:44:57.870Z,13.5308
2023-03-26T11:46:04.882Z,13.5289
2023-03-26T11:47:11.827Z,13.5375
2023-03-26T11:48:18.804Z,13.5491
2023-03-26T11:49:25.786Z,13.5505
2023-03-26T11:50:32.782Z,13.5585
2023-03-26T11:51:39.735Z,13.5770
2023-03-26T11:52:47.154Z,13.6088
2023-03-26T11:53:53.690Z,13.6485
2023-03-26T11:55:00.700Z,13.6889
2023-03-26T11:56:07.732Z,13.7254
2023-03-26T11:57:14.680Z,13.7589
2023-03-26T11:58:21.619Z,13.7923
2023-03-26T11:59:28.609Z,13.8295
2023-03-26T12:00:35.556Z,13.8591
2023-03-26T12:01:42.597Z,13.8907
2023-03-26T12:02:49.600Z,13.9149
2023-03-26T12:03:56.549Z,13.9396
2023-03-26T12:05:03.459Z,13.9674
2023-03-26T12:06:10.471Z,13.9842
2023-03-26T12:07:17.438Z,14.0172
2023-03-26T12:08:24.450Z,14.0446
2023-03-26T12:09:31.385Z,14.0719
2023-03-26T12:10:38.630Z,14.0897
2023-03-26T12:11:45.332Z,14.1166
2023-03-26T12:12:52.355Z,14.1341
2023-03-26T12:13:59.303Z,14.1293
2023-03-26T12:15:06.302Z,14.1188
2023-03-26T12:16:13.331Z,14.0910
2023-03-26T12:17:20.248Z,14.0094
2023-03-26T12:18:32.028Z,13.9411
2023-03-26T12:19:39.011Z,13.9016
2023-03-26T12:20:45.975Z,13.8240
2023-03-26T12:21:52.951Z,13.7191
2023-03-26T12:22:59.909Z,13.6662
2023-03-26T12:24:06.915Z,13.6493
2023-03-26T12:25:13.890Z,13.6109
2023-03-26T12:26:20.863Z,13.5732
2023-03-26T12:27:27.822Z,13.5691
2023-03-26T12:28:34.819Z,13.5766
2023-03-26T12:29:41.788Z,13.5567
2023-03-26T12:30:48.799Z,13.5232
2023-03-26T12:31:55.943Z,13.4887
2023-03-26T12:33:02.773Z,13.4646
2023-03-26T12:34:09.707Z,13.4732
2023-03-26T12:35:16.701Z,13.4909
2023-03-26T12:36:23.668Z,13.4660
2023-03-26T12:37:30.653Z,13.4679
2023-03-26T12:38:37.621Z,13.4929
2023-03-26T12:40:09.944Z,13.5278
2023-03-26T12:40:56.455Z,13.5763
2023-03-26T12:43:40.603Z,13.6168
2023-03-26T12:44:54.027Z,13.6572
2023-03-26T12:44:55.724Z,13.7059
2023-03-26T12:45:38.673Z,13.7332
2023-03-26T12:47:58.245Z,13.7265
2023-03-26T12:48:03.889Z,13.6831
2023-03-26T12:49:09.237Z,13.5997
2023-03-26T12:50:16.105Z,13.5201
2023-03-26T12:51:23.112Z,13.4974
2023-03-26T12:52:30.076Z,13.5178
2023-03-26T12:53:37.087Z,13.5609
2023-03-26T12:54:44.024Z,13.5999
2023-03-26T12:55:51.033Z,13.6420
2023-03-26T12:57:11.401Z,13.6740
2023-03-26T12:58:14.031Z,13.7079
2023-03-26T12:59:21.533Z,13.7022
2023-03-26T13:00:28.513Z,13.6735
2023-03-26T13:01:35.508Z,13.6475
2023-03-26T13:02:42.519Z,13.6384
2023-03-26T13:03:51.821Z,13.6634
2023-03-26T13:05:06.425Z,13.7008
2023-03-26T13:06:12.970Z,13.7510
2023-03-26T13:07:19.949Z,13.8011
2023-03-26T13:08:26.908Z,13.8528
2023-03-26T13:09:33.926Z,13.8959
2023-03-26T13:10:40.906Z,13.9310
2023-03-26T13:11:47.855Z,13.9693
2023-03-26T13:12:54.842Z,13.9972
2023-03-26T13:14:01.814Z,13.9970
2023-03-26T13:15:08.870Z,13.9922
2023-03-26T13:16:15.850Z,14.0092
2023-03-26T13:17:22.923Z,14.0195
2023-03-26T13:18:29.803Z,14.0307
2023-03-26T13:19:36.782Z,14.0202
2023-03-26T13:20:43.752Z,13.9703
2023-03-26T13:21:53.017Z,13.9008
2023-03-26T13:23:02.505Z,13.8793
2023-03-26T13:24:09.505Z,13.8772
2023-03-26T13:25:16.465Z,13.8736
2023-03-26T13:26:23.453Z,13.8858
2023-03-26T13:27:30.413Z,13.8919
2023-03-26T13:28:37.403Z,13.8989
2023-03-26T13:29:44.375Z,13.9016
2023-03-26T13:30:51.409Z,13.9014
2023-03-26T13:31:58.361Z,13.9012
2023-03-26T13:33:05.378Z,13.8869
2023-03-26T13:34:12.303Z,13.8923